NKS9918 KLAX-KPHX
Flight info
| Callsign | NKS9918 |
|---|---|
| Flight time | 0h 57m |
| Altitude | 37000 |
| Route | DOTSS2 CNERY BLH HYDRR1 |
| Aircraft | A20N/M-SDE3FGHIRWY/LB1 |
Departure
| Time | 2026-05-04 02:34 |
|---|---|
| Airport | Los Angeles International Airport (KLAX) |
Arrival
| Time | 2026-05-04 03:32 |
|---|---|
| Airport | Phoenix Sky Harbor International Airport (KPHX) |
| Time | Latitude | Longitude | Altitude | Speed | Heading |
|---|---|---|---|---|---|
| 2026-05-04 01:51 | 33.94559 | -118.40813 | 120 ft | 0 kts | 89° |
| 2026-05-04 02:13 | 33.94559 | -118.40820 | 120 ft | 2 kts | 87° |
| 2026-05-04 02:13 | 33.94558 | -118.40838 | 120 ft | 2 kts | 77° |
| 2026-05-04 02:13 | 33.94552 | -118.40856 | 121 ft | 2 kts | 58° |
| 2026-05-04 02:14 | 33.94542 | -118.40871 | 121 ft | 2 kts | 41° |
| 2026-05-04 02:14 | 33.94529 | -118.40881 | 121 ft | 2 kts | 24° |
| 2026-05-04 02:14 | 33.94516 | -118.40886 | 121 ft | 2 kts | 8° |
| 2026-05-04 02:14 | 33.94506 | -118.40887 | 120 ft | 0 kts | 356° |
| 2026-05-04 02:15 | 33.94500 | -118.40886 | 120 ft | 1 kts | 352° |
| 2026-05-04 02:15 | 33.94498 | -118.40885 | 120 ft | 0 kts | 353° |
| 2026-05-04 02:19 | 33.94528 | -118.40890 | 121 ft | 6 kts | 352° |
| 2026-05-04 02:20 | 33.94579 | -118.40897 | 121 ft | 9 kts | 353° |
| 2026-05-04 02:20 | 33.94651 | -118.40908 | 122 ft | 10 kts | 353° |
| 2026-05-04 02:20 | 33.94725 | -118.40928 | 122 ft | 11 kts | 325° |
| 2026-05-04 02:20 | 33.94741 | -118.41009 | 123 ft | 10 kts | 263° |
| 2026-05-04 02:21 | 33.94736 | -118.41061 | 123 ft | 10 kts | 263° |
| 2026-05-04 02:21 | 33.94732 | -118.41095 | 123 ft | 0 kts | 263° |
| 2026-05-04 02:23 | 33.94732 | -118.41096 | 123 ft | 0 kts | 263° |
| 2026-05-04 02:23 | 33.94725 | -118.41154 | 123 ft | 8 kts | 259° |
| 2026-05-04 02:23 | 33.94706 | -118.41228 | 123 ft | 10 kts | 246° |
| 2026-05-04 02:23 | 33.94672 | -118.41306 | 121 ft | 6 kts | 197° |
| 2026-05-04 02:24 | 33.94627 | -118.41277 | 120 ft | 8 kts | 138° |
| 2026-05-04 02:24 | 33.94564 | -118.41267 | 120 ft | 9 kts | 182° |
| 2026-05-04 02:24 | 33.94493 | -118.41259 | 120 ft | 10 kts | 173° |
| 2026-05-04 02:24 | 33.94416 | -118.41247 | 120 ft | 11 kts | 172° |
| 2026-05-04 02:25 | 33.94331 | -118.41233 | 120 ft | 12 kts | 173° |
| 2026-05-04 02:25 | 33.94248 | -118.41220 | 122 ft | 12 kts | 173° |
| 2026-05-04 02:25 | 33.94165 | -118.41209 | 123 ft | 12 kts | 174° |
| 2026-05-04 02:25 | 33.94080 | -118.41197 | 123 ft | 12 kts | 172° |
| 2026-05-04 02:26 | 33.93991 | -118.41183 | 124 ft | 12 kts | 173° |
| 2026-05-04 02:26 | 33.93906 | -118.41172 | 125 ft | 12 kts | 174° |
| 2026-05-04 02:26 | 33.93823 | -118.41161 | 127 ft | 11 kts | 173° |
| 2026-05-04 02:26 | 33.93769 | -118.41101 | 127 ft | 12 kts | 96° |
| 2026-05-04 02:27 | 33.93775 | -118.41009 | 127 ft | 13 kts | 83° |
| 2026-05-04 02:27 | 33.93787 | -118.40910 | 127 ft | 13 kts | 83° |
| 2026-05-04 02:27 | 33.93797 | -118.40807 | 127 ft | 14 kts | 83° |
| 2026-05-04 02:27 | 33.93808 | -118.40696 | 127 ft | 15 kts | 83° |
| 2026-05-04 02:28 | 33.93819 | -118.40576 | 125 ft | 16 kts | 84° |
| 2026-05-04 02:28 | 33.93834 | -118.40443 | 122 ft | 18 kts | 83° |
| 2026-05-04 02:28 | 33.93849 | -118.40291 | 120 ft | 20 kts | 83° |
| 2026-05-04 02:28 | 33.93864 | -118.40147 | 120 ft | 11 kts | 83° |
| 2026-05-04 02:29 | 33.93874 | -118.40047 | 118 ft | 14 kts | 83° |
| 2026-05-04 02:29 | 33.93885 | -118.39925 | 115 ft | 16 kts | 83° |
| 2026-05-04 02:29 | 33.93898 | -118.39790 | 113 ft | 18 kts | 83° |
| 2026-05-04 02:29 | 33.93915 | -118.39642 | 110 ft | 19 kts | 83° |
| 2026-05-04 02:30 | 33.93930 | -118.39499 | 110 ft | 17 kts | 83° |
| 2026-05-04 02:30 | 33.93946 | -118.39352 | 108 ft | 19 kts | 83° |
| 2026-05-04 02:30 | 33.93962 | -118.39193 | 107 ft | 19 kts | 84° |
| 2026-05-04 02:30 | 33.93977 | -118.39047 | 105 ft | 12 kts | 83° |
| 2026-05-04 02:31 | 33.93987 | -118.38942 | 104 ft | 13 kts | 84° |
| 2026-05-04 02:31 | 33.93998 | -118.38828 | 104 ft | 14 kts | 84° |
| 2026-05-04 02:31 | 33.94010 | -118.38705 | 104 ft | 15 kts | 83° |
| 2026-05-04 02:31 | 33.94024 | -118.38574 | 104 ft | 15 kts | 74° |
| 2026-05-04 02:32 | 33.94040 | -118.38443 | 103 ft | 16 kts | 84° |
| 2026-05-04 02:32 | 33.94044 | -118.38373 | 102 ft | 0 kts | 97° |
| 2026-05-04 02:33 | 33.93998 | -118.38335 | 101 ft | 12 kts | 187° |
| 2026-05-04 02:33 | 33.93946 | -118.38395 | 102 ft | 10 kts | 261° |
| 2026-05-04 02:33 | 33.93939 | -118.38475 | 104 ft | 10 kts | 264° |
| 2026-05-04 02:33 | 33.93914 | -118.38716 | 104 ft | 68 kts | 263° |
| 2026-05-04 02:34 | 33.93843 | -118.39421 | 109 ft | 130 kts | 263° |
| 2026-05-04 02:34 | 33.93698 | -118.40865 | 245 ft | 181 kts | 263° |
| 2026-05-04 02:34 | 33.93410 | -118.42748 | 873 ft | 203 kts | 256° |
| 2026-05-04 02:34 | 33.93069 | -118.44314 | 1790 ft | 207 kts | 253° |
| 2026-05-04 02:35 | 33.92549 | -118.45939 | 2733 ft | 215 kts | 243° |
| 2026-05-04 02:35 | 33.91806 | -118.47486 | 3692 ft | 223 kts | 238° |
| 2026-05-04 02:35 | 33.90881 | -118.49068 | 4417 ft | 245 kts | 233° |
| 2026-05-04 02:35 | 33.89740 | -118.50785 | 4857 ft | 280 kts | 232° |
| 2026-05-04 02:36 | 33.88408 | -118.52735 | 4952 ft | 325 kts | 231° |
| 2026-05-04 02:36 | 33.86751 | -118.54780 | 4926 ft | 348 kts | 216° |
| 2026-05-04 02:36 | 33.84526 | -118.55827 | 4990 ft | 325 kts | 187° |
| 2026-05-04 02:36 | 33.82282 | -118.55607 | 5726 ft | 326 kts | 169° |
| 2026-05-04 02:37 | 33.80011 | -118.54949 | 6620 ft | 329 kts | 168° |
| 2026-05-04 02:37 | 33.77775 | -118.54295 | 7491 ft | 333 kts | 168° |
| 2026-05-04 02:37 | 33.75511 | -118.53654 | 8356 ft | 335 kts | 169° |
| 2026-05-04 02:37 | 33.73199 | -118.53015 | 9233 ft | 337 kts | 169° |
| 2026-05-04 02:38 | 33.70998 | -118.52061 | 10072 ft | 345 kts | 151° |
| 2026-05-04 02:38 | 33.69242 | -118.50057 | 10936 ft | 355 kts | 127° |
| 2026-05-04 02:38 | 33.68222 | -118.47370 | 11816 ft | 361 kts | 112° |
| 2026-05-04 02:38 | 33.67428 | -118.44517 | 12674 ft | 362 kts | 112° |
| 2026-05-04 02:39 | 33.66623 | -118.41678 | 13523 ft | 363 kts | 112° |
| 2026-05-04 02:39 | 33.65792 | -118.38811 | 14364 ft | 363 kts | 113° |
| 2026-05-04 02:39 | 33.65020 | -118.35915 | 15198 ft | 365 kts | 109° |
| 2026-05-04 02:39 | 33.64545 | -118.32927 | 16011 ft | 368 kts | 101° |
| 2026-05-04 02:40 | 33.64399 | -118.29864 | 16829 ft | 370 kts | 95° |
| 2026-05-04 02:40 | 33.64394 | -118.26736 | 17645 ft | 368 kts | 93° |
| 2026-05-04 02:40 | 33.64423 | -118.23711 | 18465 ft | 364 kts | 94° |
| 2026-05-04 02:40 | 33.64451 | -118.20724 | 19295 ft | 359 kts | 95° |
| 2026-05-04 02:41 | 33.64467 | -118.17735 | 20125 ft | 353 kts | 94° |
| 2026-05-04 02:41 | 33.64478 | -118.14825 | 20960 ft | 346 kts | 95° |
| 2026-05-04 02:41 | 33.64482 | -118.11969 | 21565 ft | 347 kts | 96° |
| 2026-05-04 02:41 | 33.64472 | -118.09053 | 22062 ft | 354 kts | 96° |
| 2026-05-04 02:42 | 33.64460 | -118.06058 | 22407 ft | 365 kts | 96° |
| 2026-05-04 02:42 | 33.64451 | -118.02958 | 22653 ft | 381 kts | 95° |
| 2026-05-04 02:42 | 33.64443 | -117.99686 | 22908 ft | 396 kts | 95° |
| 2026-05-04 02:42 | 33.64438 | -117.96323 | 23151 ft | 411 kts | 95° |
| 2026-05-04 02:43 | 33.64432 | -117.92841 | 23396 ft | 425 kts | 94° |
| 2026-05-04 02:43 | 33.64423 | -117.89263 | 23645 ft | 438 kts | 94° |
| 2026-05-04 02:43 | 33.64409 | -117.85509 | 23899 ft | 452 kts | 94° |
| 2026-05-04 02:43 | 33.64288 | -117.81722 | 24154 ft | 461 kts | 99° |
| 2026-05-04 02:44 | 33.63872 | -117.77848 | 24408 ft | 469 kts | 106° |
| 2026-05-04 02:44 | 33.63132 | -117.73990 | 24658 ft | 475 kts | 111° |
| 2026-05-04 02:44 | 33.62202 | -117.70193 | 24900 ft | 485 kts | 114° |
| 2026-05-04 02:44 | 33.61198 | -117.66293 | 25143 ft | 494 kts | 113° |
| 2026-05-04 02:45 | 33.60183 | -117.62323 | 25390 ft | 504 kts | 113° |
| 2026-05-04 02:45 | 33.59158 | -117.58276 | 25632 ft | 513 kts | 112° |
| 2026-05-04 02:45 | 33.58132 | -117.54163 | 25874 ft | 522 kts | 112° |
| 2026-05-04 02:45 | 33.57089 | -117.49933 | 26124 ft | 528 kts | 112° |
| 2026-05-04 02:46 | 33.56049 | -117.45716 | 26358 ft | 533 kts | 112° |
| 2026-05-04 02:46 | 33.54997 | -117.41466 | 26606 ft | 535 kts | 112° |
| 2026-05-04 02:46 | 33.53938 | -117.37179 | 26847 ft | 538 kts | 112° |
| 2026-05-04 02:46 | 33.52865 | -117.32867 | 27091 ft | 543 kts | 113° |
| 2026-05-04 02:47 | 33.51813 | -117.28450 | 27332 ft | 550 kts | 109° |
| 2026-05-04 02:47 | 33.51012 | -117.23957 | 27579 ft | 558 kts | 104° |
| 2026-05-04 02:47 | 33.50471 | -117.19267 | 27823 ft | 564 kts | 99° |
| 2026-05-04 02:47 | 33.50241 | -117.14618 | 28067 ft | 569 kts | 94° |
| 2026-05-04 02:48 | 33.50182 | -117.10530 | 28277 ft | 571 kts | 93° |
| 2026-05-04 02:48 | 33.50167 | -117.08131 | 28402 ft | 573 kts | 94° |
| 2026-05-04 02:48 | 33.50143 | -117.03374 | 28651 ft | 574 kts | 92° |
| 2026-05-04 02:48 | 33.50112 | -116.98616 | 28898 ft | 576 kts | 93° |
| 2026-05-04 02:49 | 33.50058 | -116.93803 | 29148 ft | 577 kts | 93° |
| 2026-05-04 02:49 | 33.49997 | -116.88993 | 29402 ft | 578 kts | 94° |
| 2026-05-04 02:49 | 33.49930 | -116.84196 | 29646 ft | 579 kts | 93° |
| 2026-05-04 02:49 | 33.49861 | -116.79391 | 29906 ft | 580 kts | 94° |
| 2026-05-04 02:50 | 33.49786 | -116.74572 | 30161 ft | 580 kts | 94° |
| 2026-05-04 02:50 | 33.49704 | -116.69733 | 30406 ft | 581 kts | 94° |
| 2026-05-04 02:50 | 33.49626 | -116.64908 | 30653 ft | 581 kts | 95° |
| 2026-05-04 02:50 | 33.49542 | -116.60078 | 30908 ft | 582 kts | 95° |
| 2026-05-04 02:51 | 33.49453 | -116.55259 | 31160 ft | 582 kts | 95° |
| 2026-05-04 02:51 | 33.49358 | -116.50332 | 31405 ft | 582 kts | 95° |
| 2026-05-04 02:51 | 33.49273 | -116.45451 | 31658 ft | 583 kts | 95° |
| 2026-05-04 02:51 | 33.49183 | -116.40609 | 31903 ft | 583 kts | 94° |
| 2026-05-04 02:52 | 33.49107 | -116.35722 | 32151 ft | 584 kts | 94° |
| 2026-05-04 02:52 | 33.49045 | -116.30882 | 32391 ft | 584 kts | 94° |
| 2026-05-04 02:52 | 33.48972 | -116.26011 | 32630 ft | 584 kts | 95° |
| 2026-05-04 02:52 | 33.48908 | -116.21173 | 32871 ft | 583 kts | 95° |
| 2026-05-04 02:53 | 33.48827 | -116.16237 | 33131 ft | 583 kts | 96° |
| 2026-05-04 02:53 | 33.48766 | -116.11355 | 33426 ft | 584 kts | 92° |
| 2026-05-04 02:53 | 33.48952 | -116.06498 | 33723 ft | 586 kts | 87° |
| 2026-05-04 02:53 | 33.49506 | -116.01611 | 34020 ft | 587 kts | 79° |
| 2026-05-04 02:54 | 33.50409 | -115.96878 | 34316 ft | 586 kts | 74° |
| 2026-05-04 02:54 | 33.51659 | -115.92250 | 34620 ft | 584 kts | 68° |
| 2026-05-04 02:54 | 33.53054 | -115.87667 | 34919 ft | 583 kts | 67° |
| 2026-05-04 02:54 | 33.54462 | -115.83129 | 35221 ft | 582 kts | 68° |
| 2026-05-04 02:55 | 33.57206 | -115.74020 | 35825 ft | 580 kts | 68° |
| 2026-05-04 02:55 | 33.58532 | -115.69479 | 36129 ft | 579 kts | 70° |
| 2026-05-04 02:55 | 33.59848 | -115.64947 | 36430 ft | 577 kts | 70° |
| 2026-05-04 02:56 | 33.61166 | -115.60383 | 36735 ft | 576 kts | 68° |
| 2026-05-04 02:56 | 33.62429 | -115.55856 | 36843 ft | 579 kts | 72° |
| 2026-05-04 02:56 | 33.63450 | -115.51157 | 36840 ft | 583 kts | 79° |
| 2026-05-04 02:57 | 33.64369 | -115.41418 | 36836 ft | 589 kts | 91° |
| 2026-05-04 02:57 | 33.63742 | -115.31701 | 36804 ft | 584 kts | 107° |
| 2026-05-04 02:58 | 33.61866 | -115.22237 | 36801 ft | 582 kts | 109° |
| 2026-05-04 02:58 | 33.60619 | -115.12588 | 36797 ft | 591 kts | 97° |
| 2026-05-04 02:59 | 33.60287 | -115.02753 | 36791 ft | 593 kts | 95° |
| 2026-05-04 02:59 | 33.60085 | -114.92898 | 36772 ft | 576 kts | 94° |
| 2026-05-04 03:00 | 33.59823 | -114.83169 | 36768 ft | 569 kts | 95° |
| 2026-05-04 03:00 | 33.59536 | -114.73597 | 36757 ft | 570 kts | 94° |
| 2026-05-04 03:00 | 33.59414 | -114.68819 | 36535 ft | 571 kts | 95° |
| 2026-05-04 03:01 | 33.59312 | -114.64078 | 36239 ft | 570 kts | 95° |
| 2026-05-04 03:01 | 33.59214 | -114.59410 | 35948 ft | 569 kts | 94° |
| 2026-05-04 03:01 | 33.59109 | -114.54681 | 35654 ft | 569 kts | 94° |
| 2026-05-04 03:01 | 33.58995 | -114.49942 | 35365 ft | 570 kts | 95° |
| 2026-05-04 03:02 | 33.58886 | -114.45202 | 35007 ft | 572 kts | 93° |
| 2026-05-04 03:02 | 33.58766 | -114.40430 | 34280 ft | 574 kts | 94° |
| 2026-05-04 03:02 | 33.58654 | -114.35661 | 33556 ft | 574 kts | 94° |
| 2026-05-04 03:02 | 33.58550 | -114.30857 | 32892 ft | 576 kts | 94° |
| 2026-05-04 03:03 | 33.58413 | -114.26027 | 32293 ft | 575 kts | 94° |
| 2026-05-04 03:03 | 33.58268 | -114.21235 | 31695 ft | 571 kts | 95° |
| 2026-05-04 03:03 | 33.58131 | -114.16425 | 31101 ft | 566 kts | 94° |
| 2026-05-04 03:03 | 33.58003 | -114.11711 | 30509 ft | 561 kts | 95° |
| 2026-05-04 03:04 | 33.57877 | -114.06924 | 29900 ft | 556 kts | 95° |
| 2026-05-04 03:04 | 33.57753 | -114.02327 | 29309 ft | 550 kts | 94° |
| 2026-05-04 03:04 | 33.57626 | -113.97750 | 28673 ft | 545 kts | 94° |
| 2026-05-04 03:04 | 33.57505 | -113.93293 | 28051 ft | 539 kts | 94° |
| 2026-05-04 03:05 | 33.57390 | -113.88801 | 27420 ft | 534 kts | 94° |
| 2026-05-04 03:05 | 33.57273 | -113.84405 | 26792 ft | 529 kts | 94° |
| 2026-05-04 03:05 | 33.57144 | -113.80019 | 26165 ft | 524 kts | 94° |
| 2026-05-04 03:05 | 33.57019 | -113.75738 | 25548 ft | 520 kts | 94° |
| 2026-05-04 03:06 | 33.56905 | -113.71423 | 25036 ft | 512 kts | 94° |
| 2026-05-04 03:06 | 33.56802 | -113.67237 | 24842 ft | 502 kts | 94° |
| 2026-05-04 03:06 | 33.56703 | -113.63067 | 24841 ft | 502 kts | 94° |
| 2026-05-04 03:06 | 33.56592 | -113.58881 | 24846 ft | 503 kts | 94° |
| 2026-05-04 03:07 | 33.56473 | -113.54692 | 24850 ft | 503 kts | 94° |
| 2026-05-04 03:07 | 33.56359 | -113.50517 | 24854 ft | 502 kts | 93° |
| 2026-05-04 03:07 | 33.56190 | -113.46365 | 24848 ft | 500 kts | 99° |
| 2026-05-04 03:07 | 33.55281 | -113.42394 | 24834 ft | 489 kts | 119° |
| 2026-05-04 03:08 | 33.53664 | -113.38794 | 24861 ft | 483 kts | 127° |
| 2026-05-04 03:08 | 33.51915 | -113.35359 | 24852 ft | 482 kts | 127° |
| 2026-05-04 03:08 | 33.50187 | -113.31902 | 24843 ft | 480 kts | 126° |
| 2026-05-04 03:08 | 33.48592 | -113.28527 | 24840 ft | 463 kts | 125° |
| 2026-05-04 03:09 | 33.47052 | -113.25144 | 24397 ft | 458 kts | 124° |
| 2026-05-04 03:09 | 33.45566 | -113.21815 | 23757 ft | 457 kts | 123° |
| 2026-05-04 03:09 | 33.44083 | -113.18449 | 23110 ft | 456 kts | 123° |
| 2026-05-04 03:09 | 33.42609 | -113.15086 | 22471 ft | 454 kts | 122° |
| 2026-05-04 03:10 | 33.41153 | -113.11750 | 21968 ft | 442 kts | 122° |
| 2026-05-04 03:10 | 33.39749 | -113.08521 | 21047 ft | 434 kts | 123° |
| 2026-05-04 03:10 | 33.38336 | -113.05292 | 19899 ft | 429 kts | 122° |
| 2026-05-04 03:10 | 33.36927 | -113.02094 | 18748 ft | 423 kts | 122° |
| 2026-05-04 03:11 | 33.35586 | -112.99044 | 17639 ft | 416 kts | 122° |
| 2026-05-04 03:11 | 33.34260 | -112.96026 | 16556 ft | 408 kts | 122° |
| 2026-05-04 03:11 | 33.32958 | -112.93075 | 15703 ft | 394 kts | 122° |
| 2026-05-04 03:11 | 33.31714 | -112.90248 | 15128 ft | 373 kts | 122° |
| 2026-05-04 03:12 | 33.30549 | -112.87615 | 14818 ft | 349 kts | 122° |
| 2026-05-04 03:12 | 33.29410 | -112.85045 | 14803 ft | 346 kts | 122° |
| 2026-05-04 03:12 | 33.28560 | -112.82436 | 14797 ft | 337 kts | 108° |
| 2026-05-04 03:12 | 33.28283 | -112.79622 | 14788 ft | 340 kts | 92° |
| 2026-05-04 03:13 | 33.28469 | -112.76802 | 14799 ft | 341 kts | 86° |
| 2026-05-04 03:13 | 33.28754 | -112.73975 | 14800 ft | 342 kts | 85° |
| 2026-05-04 03:13 | 33.29052 | -112.71158 | 14788 ft | 342 kts | 86° |
| 2026-05-04 03:13 | 33.29341 | -112.68307 | 14644 ft | 343 kts | 86° |
| 2026-05-04 03:14 | 33.29616 | -112.65499 | 14420 ft | 340 kts | 86° |
| 2026-05-04 03:14 | 33.29886 | -112.62690 | 14164 ft | 335 kts | 86° |
| 2026-05-04 03:14 | 33.30143 | -112.59959 | 13918 ft | 333 kts | 87° |
| 2026-05-04 03:14 | 33.30400 | -112.57214 | 13676 ft | 330 kts | 86° |
| 2026-05-04 03:15 | 33.30653 | -112.54503 | 13432 ft | 328 kts | 87° |
| 2026-05-04 03:15 | 33.30904 | -112.51802 | 13194 ft | 325 kts | 87° |
| 2026-05-04 03:15 | 33.31147 | -112.49126 | 12889 ft | 325 kts | 87° |
| 2026-05-04 03:15 | 33.31393 | -112.46432 | 12407 ft | 327 kts | 87° |
| 2026-05-04 03:16 | 33.31640 | -112.43749 | 11929 ft | 328 kts | 87° |
| 2026-05-04 03:16 | 33.31886 | -112.41034 | 11443 ft | 329 kts | 87° |
| 2026-05-04 03:16 | 33.32132 | -112.38334 | 10969 ft | 329 kts | 86° |
| 2026-05-04 03:16 | 33.32381 | -112.35599 | 10488 ft | 330 kts | 86° |
| 2026-05-04 03:17 | 33.32632 | -112.32870 | 10044 ft | 328 kts | 87° |
| 2026-05-04 03:17 | 33.32879 | -112.30190 | 9862 ft | 317 kts | 87° |
| 2026-05-04 03:17 | 33.33117 | -112.27633 | 9863 ft | 303 kts | 87° |
| 2026-05-04 03:17 | 33.33236 | -112.26315 | 9864 ft | 303 kts | 88° |
| 2026-05-04 03:18 | 33.33375 | -112.24776 | 9864 ft | 302 kts | 87° |
| 2026-05-04 03:18 | 33.33449 | -112.23949 | 9860 ft | 303 kts | 88° |
| 2026-05-04 03:19 | 33.33585 | -112.22434 | 9864 ft | 303 kts | 88° |
| 2026-05-04 03:19 | 33.33808 | -112.19953 | 9858 ft | 303 kts | 88° |
| 2026-05-04 03:19 | 33.34031 | -112.17456 | 9654 ft | 299 kts | 88° |
| 2026-05-04 03:19 | 33.34249 | -112.15020 | 9298 ft | 289 kts | 87° |
| 2026-05-04 03:20 | 33.34463 | -112.12673 | 8970 ft | 280 kts | 88° |
| 2026-05-04 03:20 | 33.34668 | -112.10423 | 8837 ft | 259 kts | 89° |
| 2026-05-04 03:20 | 33.34764 | -112.08385 | 8827 ft | 249 kts | 95° |
| 2026-05-04 03:20 | 33.34748 | -112.06298 | 8830 ft | 249 kts | 96° |
| 2026-05-04 03:21 | 33.34712 | -112.04238 | 8815 ft | 249 kts | 96° |
| 2026-05-04 03:21 | 33.34678 | -112.02135 | 8434 ft | 254 kts | 95° |
| 2026-05-04 03:21 | 33.34645 | -112.00025 | 7970 ft | 259 kts | 95° |
| 2026-05-04 03:21 | 33.34616 | -111.97834 | 7498 ft | 265 kts | 96° |
| 2026-05-04 03:22 | 33.34587 | -111.95634 | 7092 ft | 266 kts | 96° |
| 2026-05-04 03:22 | 33.34562 | -111.93424 | 6842 ft | 261 kts | 95° |
| 2026-05-04 03:22 | 33.34598 | -111.91342 | 6819 ft | 246 kts | 94° |
| 2026-05-04 03:22 | 33.34640 | -111.89297 | 6819 ft | 243 kts | 94° |
| 2026-05-04 03:23 | 33.34685 | -111.87286 | 6821 ft | 243 kts | 94° |
| 2026-05-04 03:23 | 33.34730 | -111.85258 | 6824 ft | 243 kts | 94° |
| 2026-05-04 03:23 | 33.34769 | -111.83237 | 6823 ft | 244 kts | 94° |
| 2026-05-04 03:23 | 33.34809 | -111.81221 | 6829 ft | 246 kts | 94° |
| 2026-05-04 03:24 | 33.34849 | -111.79171 | 6835 ft | 245 kts | 94° |
| 2026-05-04 03:24 | 33.34890 | -111.77111 | 6837 ft | 245 kts | 94° |
| 2026-05-04 03:24 | 33.34927 | -111.75075 | 6836 ft | 246 kts | 94° |
| 2026-05-04 03:24 | 33.34968 | -111.73021 | 6837 ft | 246 kts | 94° |
| 2026-05-04 03:25 | 33.35008 | -111.70982 | 6840 ft | 246 kts | 92° |
| 2026-05-04 03:25 | 33.35393 | -111.68961 | 6813 ft | 255 kts | 61° |
| 2026-05-04 03:25 | 33.36710 | -111.67525 | 6834 ft | 264 kts | 22° |
| 2026-05-04 03:25 | 33.38505 | -111.67251 | 6849 ft | 260 kts | 343° |
| 2026-05-04 03:26 | 33.40061 | -111.68210 | 6856 ft | 249 kts | 309° |
| 2026-05-04 03:26 | 33.41136 | -111.69766 | 6779 ft | 244 kts | 301° |
| 2026-05-04 03:26 | 33.42168 | -111.71393 | 6331 ft | 244 kts | 302° |
| 2026-05-04 03:26 | 33.43246 | -111.72977 | 5860 ft | 243 kts | 302° |
| 2026-05-04 03:27 | 33.44020 | -111.74673 | 5416 ft | 229 kts | 276° |
| 2026-05-04 03:27 | 33.44133 | -111.76539 | 4861 ft | 223 kts | 263° |
| 2026-05-04 03:27 | 33.44102 | -111.78323 | 4525 ft | 212 kts | 263° |
| 2026-05-04 03:27 | 33.44079 | -111.80054 | 4056 ft | 207 kts | 264° |
| 2026-05-04 03:28 | 33.44067 | -111.81751 | 3654 ft | 200 kts | 264° |
| 2026-05-04 03:28 | 33.44064 | -111.83401 | 3183 ft | 197 kts | 264° |
| 2026-05-04 03:28 | 33.44067 | -111.84962 | 3109 ft | 176 kts | 264° |
| 2026-05-04 03:28 | 33.44070 | -111.86407 | 3092 ft | 173 kts | 264° |
| 2026-05-04 03:29 | 33.44083 | -111.87785 | 2982 ft | 158 kts | 265° |
| 2026-05-04 03:29 | 33.44092 | -111.89042 | 2841 ft | 149 kts | 264° |
| 2026-05-04 03:29 | 33.44092 | -111.90306 | 2844 ft | 150 kts | 264° |
| 2026-05-04 03:29 | 33.44089 | -111.91557 | 2836 ft | 148 kts | 264° |
| 2026-05-04 03:30 | 33.44114 | -111.92773 | 2540 ft | 146 kts | 266° |
| 2026-05-04 03:30 | 33.44147 | -111.93954 | 2239 ft | 138 kts | 264° |
| 2026-05-04 03:30 | 33.44107 | -111.95075 | 1973 ft | 131 kts | 262° |
| 2026-05-04 03:30 | 33.44083 | -111.96165 | 1709 ft | 132 kts | 266° |
| 2026-05-04 03:31 | 33.44096 | -111.97231 | 1525 ft | 127 kts | 265° |
| 2026-05-04 03:31 | 33.44094 | -111.98289 | 1354 ft | 127 kts | 265° |
| 2026-05-04 03:31 | 33.44088 | -111.99333 | 1179 ft | 125 kts | 264° |
| 2026-05-04 03:31 | 33.44080 | -112.00287 | 1139 ft | 102 kts | 269° |
| 2026-05-04 03:32 | 33.44084 | -112.00954 | 1135 ft | 68 kts | 272° |
| 2026-05-04 03:32 | 33.44037 | -112.01350 | 1134 ft | 25 kts | 226° |
| 2026-05-04 03:32 | 33.43991 | -112.01390 | 1133 ft | 0 kts | 226° |
| 2026-05-04 03:33 | 33.43924 | -112.01428 | 1132 ft | 17 kts | 143° |
| 2026-05-04 03:33 | 33.43903 | -112.01297 | 1134 ft | 17 kts | 89° |
| 2026-05-04 03:33 | 33.43901 | -112.01153 | 1134 ft | 17 kts | 91° |
| 2026-05-04 03:34 | 33.43899 | -112.01012 | 1134 ft | 17 kts | 91° |
| 2026-05-04 03:34 | 33.43893 | -112.00890 | 1134 ft | 12 kts | 128° |
| 2026-05-04 03:34 | 33.43861 | -112.00808 | 1135 ft | 11 kts | 115° |
| 2026-05-04 03:34 | 33.43805 | -112.00750 | 1135 ft | 7 kts | 164° |
| 2026-05-04 03:35 | 33.43751 | -112.00738 | 1134 ft | 0 kts | 181° |
| 2026-05-04 03:35 | 33.43738 | -112.00742 | 1134 ft | 14 kts | 201° |
| 2026-05-04 03:35 | 33.43735 | -112.00784 | 1134 ft | 5 kts | 288° |
| 2026-05-04 03:36 | 33.43736 | -112.00812 | 1134 ft | 0 kts | 270° |
| 2026-05-04 03:36 | 33.43737 | -112.00820 | 1134 ft | 0 kts | 271° |
| 2026-05-04 03:36 | 33.43737 | -112.00823 | 1134 ft | 0 kts | 271° |